HAZ1814 ZBYN-ZUUU
Flight info
| Callsign | HAZ1814 |
|---|---|
| Flight time | N/A |
| Altitude | 36100 |
| Route | AGVUR W87 GODON W43 SAVPA W276 ANRUG W279 ONEBA G212 SUBUL W230 AKDIK AKDIK2E |
| Aircraft | B77W/H-SDE1E2E3FGHIJ2J3J4J5M1RWXY/LB1D1 |
Departure
| Time | N/A |
|---|---|
| Airport | Taiyuan Wusu International Airport (ZBYN) |
Arrival
| Time | 2026-04-29 06:23 |
|---|---|
| Airport | Chengdu Shuangliu International Airport (ZUUU) |
| Time | Latitude | Longitude | Altitude | Speed | Heading |
|---|---|---|---|---|---|
| 2026-04-29 05:44 | 32.24241 | 106.31659 | 36243 ft | 408 kts | 259° |
| 2026-04-29 05:44 | 32.23533 | 106.28415 | 36238 ft | 406 kts | 259° |
| 2026-04-29 05:45 | 32.22114 | 106.21933 | 36233 ft | 405 kts | 259° |
| 2026-04-29 05:45 | 32.20188 | 106.15592 | 36230 ft | 413 kts | 248° |
| 2026-04-29 05:46 | 32.17171 | 106.09755 | 36239 ft | 415 kts | 244° |
| 2026-04-29 05:46 | 32.14069 | 106.04006 | 36244 ft | 415 kts | 244° |
| 2026-04-29 05:47 | 32.10959 | 105.98240 | 36242 ft | 415 kts | 244° |
| 2026-04-29 05:47 | 32.07847 | 105.92469 | 36243 ft | 415 kts | 244° |
| 2026-04-29 05:48 | 32.04719 | 105.86675 | 36235 ft | 415 kts | 244° |
| 2026-04-29 05:48 | 32.01605 | 105.80915 | 36232 ft | 414 kts | 244° |
| 2026-04-29 05:49 | 31.98503 | 105.75183 | 36225 ft | 412 kts | 244° |
| 2026-04-29 05:49 | 31.95384 | 105.69429 | 36224 ft | 414 kts | 244° |
| 2026-04-29 05:50 | 31.92265 | 105.63684 | 36222 ft | 412 kts | 244° |
| 2026-04-29 05:50 | 31.89160 | 105.57973 | 36222 ft | 414 kts | 244° |
| 2026-04-29 05:51 | 31.86024 | 105.52213 | 36233 ft | 415 kts | 244° |
| 2026-04-29 05:51 | 31.82906 | 105.46493 | 36228 ft | 412 kts | 244° |
| 2026-04-29 05:52 | 31.79788 | 105.40784 | 36232 ft | 415 kts | 244° |
| 2026-04-29 05:52 | 31.76662 | 105.35065 | 36225 ft | 414 kts | 244° |
| 2026-04-29 05:53 | 31.73542 | 105.29366 | 36239 ft | 413 kts | 243° |
| 2026-04-29 05:53 | 31.70391 | 105.23618 | 36242 ft | 415 kts | 244° |
| 2026-04-29 05:54 | 31.67278 | 105.17895 | 36246 ft | 413 kts | 244° |
| 2026-04-29 05:54 | 31.64235 | 105.12149 | 36228 ft | 415 kts | 244° |
| 2026-04-29 05:55 | 31.61197 | 105.06429 | 36234 ft | 413 kts | 244° |
| 2026-04-29 05:55 | 31.58131 | 105.00668 | 36231 ft | 414 kts | 244° |
| 2026-04-29 05:56 | 31.55099 | 104.94953 | 36236 ft | 411 kts | 244° |
| 2026-04-29 05:56 | 31.52053 | 104.89214 | 36231 ft | 416 kts | 244° |
| 2026-04-29 05:57 | 31.48978 | 104.83436 | 36229 ft | 412 kts | 244° |
| 2026-04-29 05:57 | 31.45924 | 104.77703 | 36228 ft | 415 kts | 244° |
| 2026-04-29 05:58 | 31.42850 | 104.71942 | 36236 ft | 418 kts | 244° |
| 2026-04-29 05:58 | 31.39773 | 104.66185 | 36229 ft | 416 kts | 244° |
| 2026-04-29 05:59 | 31.36754 | 104.60427 | 35602 ft | 407 kts | 244° |
| 2026-04-29 05:59 | 31.35280 | 104.57602 | 34915 ft | 407 kts | 244° |
| 2026-04-29 05:59 | 31.33811 | 104.54787 | 34243 ft | 406 kts | 244° |
| 2026-04-29 06:00 | 31.32349 | 104.51990 | 33523 ft | 406 kts | 244° |
| 2026-04-29 06:00 | 31.30866 | 104.49157 | 32740 ft | 405 kts | 244° |
| 2026-04-29 06:00 | 31.29412 | 104.46382 | 31995 ft | 405 kts | 243° |
| 2026-04-29 06:00 | 31.27904 | 104.43498 | 31246 ft | 427 kts | 243° |
| 2026-04-29 06:01 | 31.26316 | 104.40466 | 30618 ft | 435 kts | 243° |
| 2026-04-29 06:01 | 31.24730 | 104.37450 | 30191 ft | 429 kts | 243° |
| 2026-04-29 06:01 | 31.23322 | 104.34367 | 29729 ft | 424 kts | 248° |
| 2026-04-29 06:01 | 31.22030 | 104.31265 | 29255 ft | 425 kts | 248° |
| 2026-04-29 06:02 | 31.20725 | 104.28142 | 28758 ft | 424 kts | 248° |
| 2026-04-29 06:02 | 31.19411 | 104.25026 | 28232 ft | 423 kts | 248° |
| 2026-04-29 06:02 | 31.18104 | 104.21944 | 27714 ft | 420 kts | 247° |
| 2026-04-29 06:02 | 31.16814 | 104.18916 | 27200 ft | 417 kts | 247° |
| 2026-04-29 06:03 | 31.15513 | 104.15871 | 26680 ft | 415 kts | 247° |
| 2026-04-29 06:03 | 31.14227 | 104.12869 | 26161 ft | 413 kts | 247° |
| 2026-04-29 06:03 | 31.12947 | 104.09888 | 25629 ft | 412 kts | 247° |
| 2026-04-29 06:03 | 31.11654 | 104.06880 | 25083 ft | 411 kts | 247° |
| 2026-04-29 06:04 | 31.10365 | 104.03886 | 24558 ft | 408 kts | 247° |
| 2026-04-29 06:04 | 31.09089 | 104.00923 | 24011 ft | 408 kts | 246° |
| 2026-04-29 06:04 | 31.07810 | 103.97960 | 23460 ft | 405 kts | 246° |
| 2026-04-29 06:04 | 31.06564 | 103.95075 | 22923 ft | 401 kts | 246° |
| 2026-04-29 06:05 | 31.05267 | 103.92182 | 22367 ft | 401 kts | 242° |
| 2026-04-29 06:05 | 31.03638 | 103.89529 | 21800 ft | 403 kts | 233° |
| 2026-04-29 06:05 | 31.01609 | 103.87197 | 21223 ft | 405 kts | 223° |
| 2026-04-29 06:05 | 30.99266 | 103.85306 | 20669 ft | 407 kts | 213° |
| 2026-04-29 06:06 | 30.96680 | 103.83886 | 20130 ft | 409 kts | 206° |
| 2026-04-29 06:06 | 30.94031 | 103.82658 | 19540 ft | 407 kts | 205° |
| 2026-04-29 06:06 | 30.91437 | 103.81464 | 18988 ft | 404 kts | 205° |
| 2026-04-29 06:06 | 30.88784 | 103.80240 | 18404 ft | 402 kts | 205° |
| 2026-04-29 06:07 | 30.86143 | 103.79130 | 17806 ft | 400 kts | 198° |
| 2026-04-29 06:07 | 30.83373 | 103.78550 | 17171 ft | 402 kts | 186° |
| 2026-04-29 06:07 | 30.80554 | 103.78591 | 16588 ft | 400 kts | 175° |
| 2026-04-29 06:07 | 30.77853 | 103.79233 | 16078 ft | 395 kts | 164° |
| 2026-04-29 06:08 | 30.75330 | 103.80441 | 15718 ft | 387 kts | 153° |
| 2026-04-29 06:08 | 30.73088 | 103.82133 | 15184 ft | 376 kts | 141° |
| 2026-04-29 06:08 | 30.71260 | 103.84242 | 14787 ft | 360 kts | 128° |
| 2026-04-29 06:08 | 30.69999 | 103.86683 | 14410 ft | 345 kts | 112° |
| 2026-04-29 06:09 | 30.69466 | 103.89328 | 14069 ft | 330 kts | 91° |
| 2026-04-29 06:09 | 30.69774 | 103.91878 | 13730 ft | 316 kts | 68° |
| 2026-04-29 06:09 | 30.70897 | 103.93993 | 13528 ft | 297 kts | 43° |
| 2026-04-29 06:09 | 30.72514 | 103.95290 | 13446 ft | 275 kts | 20° |
| 2026-04-29 06:10 | 30.74307 | 103.95804 | 13107 ft | 266 kts | 1° |
| 2026-04-29 06:10 | 30.76140 | 103.95592 | 12415 ft | 272 kts | 341° |
| 2026-04-29 06:10 | 30.77906 | 103.94801 | 11696 ft | 278 kts | 336° |
| 2026-04-29 06:10 | 30.79750 | 103.94115 | 11324 ft | 272 kts | 350° |
| 2026-04-29 06:11 | 30.81628 | 103.93980 | 11324 ft | 264 kts | 6° |
| 2026-04-29 06:11 | 30.83377 | 103.94376 | 11340 ft | 252 kts | 17° |
| 2026-04-29 06:11 | 30.85005 | 103.95018 | 11331 ft | 245 kts | 21° |
| 2026-04-29 06:11 | 30.86574 | 103.95727 | 11324 ft | 242 kts | 22° |
| 2026-04-29 06:12 | 30.88143 | 103.96459 | 11345 ft | 241 kts | 22° |
| 2026-04-29 06:12 | 30.89690 | 103.97185 | 11353 ft | 241 kts | 23° |
| 2026-04-29 06:12 | 30.91224 | 103.97904 | 11363 ft | 241 kts | 23° |
| 2026-04-29 06:12 | 30.92781 | 103.98634 | 11239 ft | 242 kts | 23° |
| 2026-04-29 06:13 | 30.94364 | 103.99377 | 10966 ft | 240 kts | 23° |
| 2026-04-29 06:13 | 30.95897 | 104.00096 | 10698 ft | 238 kts | 23° |
| 2026-04-29 06:13 | 30.97413 | 104.00820 | 10433 ft | 236 kts | 28° |
| 2026-04-29 06:13 | 30.98652 | 104.02042 | 10149 ft | 232 kts | 59° |
| 2026-04-29 06:14 | 30.99149 | 104.03780 | 9869 ft | 230 kts | 89° |
| 2026-04-29 06:14 | 30.98926 | 104.05637 | 9576 ft | 228 kts | 106° |
| 2026-04-29 06:14 | 30.98421 | 104.07382 | 9287 ft | 226 kts | 111° |
| 2026-04-29 06:14 | 30.97843 | 104.09081 | 9011 ft | 225 kts | 112° |
| 2026-04-29 06:15 | 30.97071 | 104.10639 | 8743 ft | 224 kts | 136° |
| 2026-04-29 06:15 | 30.95736 | 104.11533 | 8477 ft | 224 kts | 167° |
| 2026-04-29 06:15 | 30.94185 | 104.11500 | 8215 ft | 225 kts | 193° |
| 2026-04-29 06:15 | 30.92694 | 104.10954 | 7938 ft | 225 kts | 200° |
| 2026-04-29 06:16 | 30.91229 | 104.10287 | 7658 ft | 223 kts | 201° |
| 2026-04-29 06:16 | 30.89803 | 104.09619 | 7396 ft | 221 kts | 201° |
| 2026-04-29 06:16 | 30.88377 | 104.08950 | 7140 ft | 221 kts | 201° |
| 2026-04-29 06:16 | 30.86938 | 104.08276 | 6878 ft | 219 kts | 201° |
| 2026-04-29 06:17 | 30.85539 | 104.07620 | 6627 ft | 218 kts | 201° |
| 2026-04-29 06:17 | 30.84120 | 104.06956 | 6367 ft | 217 kts | 201° |
| 2026-04-29 06:17 | 30.82723 | 104.06302 | 6108 ft | 217 kts | 201° |
| 2026-04-29 06:17 | 30.81326 | 104.05648 | 5867 ft | 215 kts | 201° |
| 2026-04-29 06:18 | 30.79953 | 104.05006 | 5766 ft | 204 kts | 201° |
| 2026-04-29 06:18 | 30.78635 | 104.04411 | 5620 ft | 200 kts | 198° |
| 2026-04-29 06:18 | 30.77361 | 104.03812 | 5375 ft | 197 kts | 203° |
| 2026-04-29 06:18 | 30.76108 | 104.03183 | 5118 ft | 194 kts | 202° |
| 2026-04-29 06:19 | 30.74859 | 104.02587 | 4865 ft | 190 kts | 201° |
| 2026-04-29 06:19 | 30.73637 | 104.02020 | 4614 ft | 186 kts | 200° |
| 2026-04-29 06:19 | 30.72444 | 104.01469 | 4371 ft | 176 kts | 200° |
| 2026-04-29 06:19 | 30.71336 | 104.00956 | 4143 ft | 166 kts | 200° |
| 2026-04-29 06:20 | 30.70295 | 104.00473 | 3938 ft | 156 kts | 200° |
| 2026-04-29 06:20 | 30.69285 | 104.00004 | 3734 ft | 156 kts | 200° |
| 2026-04-29 06:20 | 30.68276 | 103.99535 | 3524 ft | 155 kts | 200° |
| 2026-04-29 06:20 | 30.67268 | 103.99067 | 3307 ft | 154 kts | 199° |
| 2026-04-29 06:21 | 30.66262 | 103.98600 | 3099 ft | 154 kts | 199° |
| 2026-04-29 06:21 | 30.65272 | 103.98141 | 2891 ft | 154 kts | 199° |
| 2026-04-29 06:21 | 30.64272 | 103.97675 | 2683 ft | 154 kts | 199° |
| 2026-04-29 06:21 | 30.63275 | 103.97213 | 2476 ft | 154 kts | 199° |
| 2026-04-29 06:22 | 30.62276 | 103.96748 | 2259 ft | 154 kts | 199° |
| 2026-04-29 06:22 | 30.61272 | 103.96287 | 2099 ft | 153 kts | 198° |
| 2026-04-29 06:22 | 30.60274 | 103.95837 | 1879 ft | 154 kts | 200° |
| 2026-04-29 06:22 | 30.59282 | 103.95371 | 1664 ft | 151 kts | 199° |
| 2026-04-29 06:23 | 30.58657 | 103.95083 | 1645 ft | 134 kts | 201° |
| 2026-04-29 06:23 | 30.57744 | 103.94655 | 1644 ft | 75 kts | 203° |
| 2026-04-29 06:23 | 30.57382 | 103.94486 | 1644 ft | 37 kts | 201° |
| 2026-04-29 06:23 | 30.57181 | 103.94444 | 1644 ft | 25 kts | 180° |
| 2026-04-29 06:24 | 30.57019 | 103.94468 | 1644 ft | 18 kts | 171° |
| 2026-04-29 06:24 | 30.56898 | 103.94479 | 1644 ft | 16 kts | 165° |
| 2026-04-29 06:24 | 30.56839 | 103.94577 | 1644 ft | 14 kts | 109° |
| 2026-04-29 06:24 | 30.56806 | 103.94683 | 1644 ft | 13 kts | 109° |
| 2026-04-29 06:25 | 30.56776 | 103.94782 | 1644 ft | 12 kts | 110° |
| 2026-04-29 06:25 | 30.56765 | 103.94873 | 1644 ft | 11 kts | 72° |
| 2026-04-29 06:25 | 30.56816 | 103.94932 | 1644 ft | 10 kts | 25° |
| 2026-04-29 06:25 | 30.56880 | 103.94963 | 1644 ft | 9 kts | 19° |
| 2026-04-29 06:26 | 30.56911 | 103.94975 | 1644 ft | 0 kts | 18° |
| 2026-04-29 06:26 | 30.56919 | 103.94979 | 1644 ft | 0 kts | 22° |
| 2026-04-29 06:26 | 30.56920 | 103.94979 | 1644 ft | 0 kts | 22° |